Time;durP1;ratioP1;P1;durP2;ratioP2;P2;SDS_P1;SDS_P2;PMS_P1;PMS_P2;Temp;Humidity;BMP_temperature;BMP_pressure;BME280_temperature;BME280_humidity;BME280_pressure;Samples;Min_cycle;Max_cycle;Signal;HPM_P1;HPM_P2
2022/11/25 00:02:19;;;;;;;19.67;5.15;;;;;;;;;;5045360;28;20049;-70
2022/11/25 00:04:45;;;;;;;17.38;4.65;;;;;;;;;;5044355;28;20041;-70
2022/11/25 00:07:11;;;;;;;23.92;5.30;;;;;;;;;;5043422;28;20052;-69
2022/11/25 00:09:37;;;;;;;21.42;5.63;;;;;;;;;;5046222;28;20062;-70
2022/11/25 00:12:03;;;;;;;24.02;5.60;;;;;;;;;;5043931;28;20041;-69
2022/11/25 00:14:29;;;;;;;21.67;5.07;;;;;;;;;;5041130;28;20706;-69
2022/11/25 00:16:55;;;;;;;17.77;5.10;;;;;;;;;;5044653;28;20124;-71
2022/11/25 00:19:21;;;;;;;21.27;5.30;;;;;;;;;;5043552;28;20052;-69
2022/11/25 00:21:47;;;;;;;23.92;5.40;;;;;;;;;;5045009;28;20403;-69
2022/11/25 00:24:14;;;;;;;22.25;5.32;;;;;;;;;;5042519;28;20044;-70
2022/11/25 00:26:41;;;;;;;24.10;5.38;;;;;;;;;;5044731;28;20052;-68
2022/11/25 00:29:09;;;;;;;23.58;5.93;;;;;;;;;;5042978;28;20067;-68
2022/11/25 00:31:36;;;;;;;22.05;5.45;;;;;;;;;;5026360;28;20037;-68
2022/11/25 00:34:02;;;;;;;24.08;5.90;;;;;;;;;;5043279;28;20053;-69
2022/11/25 00:36:30;;;;;;;22.35;5.30;;;;;;;;;;5025411;28;20403;-71
2022/11/25 00:38:57;;;;;;;17.90;5.05;;;;;;;;;;5042797;28;20049;-69
2022/11/25 00:46:54;;;;;;;25.38;5.53;;;;;;;;;;5060414;28;20045;-70
2022/11/25 00:49:20;;;;;;;19.30;4.63;;;;;;;;;;5042910;28;20547;-69
2022/11/25 00:51:46;;;;;;;29.83;5.32;;;;;;;;;;5044655;28;20041;-71
2022/11/25 00:54:12;;;;;;;23.05;5.20;;;;;;;;;;5041613;28;20492;-70
2022/11/25 00:56:38;;;;;;;16.73;4.85;;;;;;;;;;5044412;28;20045;-69
2022/11/25 00:59:04;;;;;;;17.77;4.90;;;;;;;;;;5040960;28;20049;-70
2022/11/25 01:01:30;;;;;;;16.15;4.80;;;;;;;;;;5043912;28;20036;-68
2022/11/25 01:03:56;;;;;;;20.73;5.03;;;;;;;;;;5043333;28;20136;-70
2022/11/25 01:06:22;;;;;;;23.40;5.88;;;;;;;;;;5042941;28;20052;-68
2022/11/25 01:08:49;;;;;;;17.13;5.43;;;;;;;;;;5045093;28;20515;-71
2022/11/25 01:11:16;;;;;;;25.17;5.45;;;;;;;;;;5041349;28;20049;-69
2022/11/25 01:13:42;;;;;;;18.33;5.03;;;;;;;;;;5044417;28;20065;-69
2022/11/25 01:16:10;;;;;;;17.10;5.00;;;;;;;;;;5042638;28;20052;-68
2022/11/25 01:18:36;;;;;;;20.15;5.18;;;;;;;;;;5043861;28;21171;-69
2022/11/25 01:21:09;;;;;;;16.73;4.18;;;;;;;;;;5041095;28;20049;-70
2022/11/25 01:23:35;;;;;;;19.05;4.75;;;;;;;;;;5041868;28;20510;-70
2022/11/25 01:26:05;;;;;;;21.15;4.95;;;;;;;;;;5041406;28;20183;-71
2022/11/25 01:28:31;;;;;;;24.42;4.82;;;;;;;;;;5027556;28;20064;-70
2022/11/25 01:31:01;;;;;;;19.40;4.82;;;;;;;;;;5041732;28;20044;-69
2022/11/25 01:33:27;;;;;;;24.70;5.00;;;;;;;;;;5041184;28;20140;-72
2022/11/25 01:35:53;;;;;;;18.10;4.43;;;;;;;;;;5042321;28;20048;-70
2022/11/25 01:38:19;;;;;;;22.48;5.00;;;;;;;;;;5043312;28;20106;-70
2022/11/25 01:40:45;;;;;;;24.60;5.47;;;;;;;;;;5043669;28;20045;-69
2022/11/25 01:43:15;;;;;;;26.10;5.18;;;;;;;;;;5044345;28;20099;-68
2022/11/25 01:45:41;;;;;;;20.98;5.15;;;;;;;;;;5041947;28;20495;-71
2022/11/25 01:48:27;;;;;;;17.08;4.78;;;;;;;;;;5041394;28;20114;-72
2022/11/25 01:50:53;;;;;;;23.52;5.18;;;;;;;;;;5040759;28;20452;-72
2022/11/25 01:53:21;;;;;;;22.08;4.78;;;;;;;;;;5042348;28;20068;-71
2022/11/25 01:55:50;;;;;;;21.08;5.38;;;;;;;;;;5040500;28;20076;-72
2022/11/25 01:58:22;;;;;;;20.85;5.43;;;;;;;;;;5041028;28;20403;-74
2022/11/25 02:00:51;;;;;;;27.25;5.95;;;;;;;;;;5042484;28;21809;-72
2022/11/25 02:03:26;;;;;;;22.58;5.40;;;;;;;;;;5043198;28;20407;-71
2022/11/25 02:05:59;;;;;;;21.67;5.28;;;;;;;;;;5041901;28;20045;-70
2022/11/25 02:08:26;;;;;;;23.55;5.40;;;;;;;;;;5041586;28;20052;-73
2022/11/25 02:10:53;;;;;;;22.25;5.68;;;;;;;;;;5045883;28;20047;-71
2022/11/25 02:13:20;;;;;;;21.05;5.15;;;;;;;;;;5039933;28;20652;-71
2022/11/25 02:15:46;;;;;;;25.13;5.57;;;;;;;;;;5043529;28;20407;-73
2022/11/25 02:18:12;;;;;;;23.77;7.00;;;;;;;;;;5039550;28;20041;-70
2022/11/25 02:20:39;;;;;;;23.38;6.28;;;;;;;;;;5043195;28;20610;-73
2022/11/25 02:23:17;;;;;;;22.92;6.15;;;;;;;;;;5042846;28;20083;-71
2022/11/25 02:25:45;;;;;;;21.08;6.22;;;;;;;;;;5040405;28;20044;-74
2022/11/25 02:28:15;;;;;;;26.27;6.70;;;;;;;;;;5041487;28;20118;-71
2022/11/25 02:30:41;;;;;;;38.75;7.38;;;;;;;;;;5041163;28;20055;-70
2022/11/25 02:33:07;;;;;;;27.52;6.53;;;;;;;;;;5042691;28;20045;-74
2022/11/25 02:35:35;;;;;;;24.50;6.82;;;;;;;;;;5039435;28;20075;-71
2022/11/25 02:38:05;;;;;;;22.25;6.40;;;;;;;;;;5040424;28;20052;-73
2022/11/25 02:40:33;;;;;;;22.38;6.88;;;;;;;;;;5038920;28;20072;-74
2022/11/25 02:43:00;;;;;;;23.67;6.75;;;;;;;;;;5038201;28;20047;-72
2022/11/25 02:45:29;;;;;;;21.85;6.53;;;;;;;;;;5040700;28;20068;-74
2022/11/25 02:47:55;;;;;;;31.05;7.30;;;;;;;;;;5040256;28;20048;-70
2022/11/25 02:50:21;;;;;;;26.27;7.03;;;;;;;;;;5041651;28;20045;-71
2022/11/25 02:52:47;;;;;;;27.65;7.40;;;;;;;;;;5038103;28;20784;-74
2022/11/25 02:55:13;;;;;;;28.60;7.25;;;;;;;;;;5038932;28;20060;-72
2022/11/25 02:57:39;;;;;;;28.42;7.65;;;;;;;;;;5040687;28;20427;-73
2022/11/25 03:00:06;;;;;;;28.73;7.65;;;;;;;;;;5038995;28;20044;-74
2022/11/25 03:02:32;;;;;;;27.42;7.53;;;;;;;;;;5040900;28;20041;-73
2022/11/25 03:04:58;;;;;;;31.33;7.70;;;;;;;;;;5040549;28;20440;-72
2022/11/25 03:07:24;;;;;;;30.08;7.88;;;;;;;;;;5039915;28;20059;-74
2022/11/25 03:09:50;;;;;;;25.00;7.97;;;;;;;;;;5043534;28;20049;-73
2022/11/25 03:12:19;;;;;;;32.38;8.23;;;;;;;;;;5026865;28;20052;-71
2022/11/25 03:14:46;;;;;;;35.97;8.45;;;;;;;;;;5043359;28;20045;-73
2022/11/25 03:17:12;;;;;;;32.22;8.02;;;;;;;;;;5041350;28;20460;-71
2022/11/25 03:19:38;;;;;;;33.65;8.18;;;;;;;;;;5040007;28;20132;-74
2022/11/25 03:22:04;;;;;;;34.05;8.68;;;;;;;;;;5039435;28;20033;-74
2022/11/25 03:24:30;;;;;;;25.67;7.63;;;;;;;;;;5043735;28;20186;-70
2022/11/25 03:26:56;;;;;;;27.48;7.68;;;;;;;;;;5042095;28;20168;-70
2022/11/25 03:29:22;;;;;;;31.13;8.68;;;;;;;;;;5040368;28;20535;-71
2022/11/25 03:31:48;;;;;;;24.90;7.93;;;;;;;;;;5040343;28;20076;-71
2022/11/25 03:34:14;;;;;;;22.20;7.93;;;;;;;;;;5042874;28;20143;-70
2022/11/25 03:36:40;;;;;;;26.27;7.70;;;;;;;;;;5039728;28;20502;-74
2022/11/25 03:39:06;;;;;;;29.90;7.97;;;;;;;;;;5039777;28;20068;-72
2022/11/25 03:41:32;;;;;;;23.70;7.72;;;;;;;;;;5039437;28;20033;-71
2022/11/25 03:43:58;;;;;;;27.13;8.13;;;;;;;;;;5023013;28;20071;-72
2022/11/25 03:46:24;;;;;;;38.33;8.20;;;;;;;;;;5040888;28;20045;-72
2022/11/25 03:48:50;;;;;;;28.13;7.55;;;;;;;;;;5035511;28;20120;-74
2022/11/25 03:51:16;;;;;;;30.33;7.72;;;;;;;;;;5038544;28;20045;-73
2022/11/25 03:53:42;;;;;;;25.60;8.30;;;;;;;;;;5038760;28;20041;-72
2022/11/25 03:56:08;;;;;;;28.65;7.93;;;;;;;;;;5041680;28;20679;-71
2022/11/25 03:58:34;;;;;;;30.58;8.32;;;;;;;;;;5038977;28;20114;-72
2022/11/25 04:01:01;;;;;;;29.77;7.90;;;;;;;;;;5037714;28;20045;-70
2022/11/25 04:03:27;;;;;;;29.60;7.97;;;;;;;;;;5040869;28;20492;-72
2022/11/25 04:05:53;;;;;;;28.27;7.93;;;;;;;;;;5024308;28;20127;-73
2022/11/25 04:08:19;;;;;;;26.15;8.80;;;;;;;;;;5040942;28;20064;-74
2022/11/25 04:10:45;;;;;;;25.83;8.15;;;;;;;;;;5027539;28;20583;-72
2022/11/25 04:13:11;;;;;;;28.80;8.60;;;;;;;;;;5041244;28;20053;-73
2022/11/25 04:15:37;;;;;;;29.17;8.52;;;;;;;;;;5045169;28;20049;-73
2022/11/25 04:18:03;;;;;;;30.60;8.20;;;;;;;;;;5041546;28;20095;-72
2022/11/25 04:20:29;;;;;;;30.20;9.30;;;;;;;;;;5046554;28;20136;-71
2022/11/25 04:22:55;;;;;;;31.65;9.05;;;;;;;;;;5044435;28;20513;-71
2022/11/25 04:25:21;;;;;;;25.42;8.13;;;;;;;;;;5046993;28;20048;-73
2022/11/25 04:27:47;;;;;;;28.77;9.25;;;;;;;;;;5044423;28;20052;-71
2022/11/25 04:30:13;;;;;;;21.90;8.63;;;;;;;;;;5042796;28;20055;-71
2022/11/25 04:32:39;;;;;;;32.22;8.88;;;;;;;;;;5049156;28;20045;-71
2022/11/25 04:35:05;;;;;;;29.85;8.63;;;;;;;;;;5043181;28;20048;-74
2022/11/25 04:37:31;;;;;;;33.33;9.13;;;;;;;;;;5041225;28;20586;-72
2022/11/25 04:39:57;;;;;;;32.80;9.75;;;;;;;;;;5043180;28;20044;-70
2022/11/25 04:42:33;;;;;;;29.55;8.90;;;;;;;;;;5041500;28;20048;-74
2022/11/25 04:45:01;;;;;;;27.73;9.23;;;;;;;;;;5040650;28;20504;-73
2022/11/25 04:47:27;;;;;;;26.25;9.75;;;;;;;;;;5042546;28;20508;-72
2022/11/25 04:49:53;;;;;;;33.08;9.13;;;;;;;;;;5043922;28;20114;-71
2022/11/25 04:52:19;;;;;;;32.63;10.15;;;;;;;;;;5045189;28;20037;-74
2022/11/25 04:54:45;;;;;;;31.02;10.07;;;;;;;;;;5043272;28;20041;-73
2022/11/25 04:57:15;;;;;;;32.53;10.20;;;;;;;;;;5043964;28;20045;-74
2022/11/25 04:59:44;;;;;;;36.83;10.10;;;;;;;;;;5041914;28;20060;-71
2022/11/25 05:02:13;;;;;;;31.10;9.90;;;;;;;;;;5041505;28;20036;-69
2022/11/25 05:04:40;;;;;;;25.38;9.20;;;;;;;;;;5044606;28;20069;-71
2022/11/25 05:07:06;;;;;;;31.02;10.65;;;;;;;;;;5043316;28;20508;-72
2022/11/25 05:09:32;;;;;;;34.55;10.25;;;;;;;;;;5044271;28;20052;-73
2022/11/25 05:11:58;;;;;;;37.92;9.70;;;;;;;;;;5047874;28;20185;-74
2022/11/25 05:14:24;;;;;;;32.35;10.60;;;;;;;;;;5044209;28;20044;-71
2022/11/25 05:16:50;;;;;;;33.63;11.00;;;;;;;;;;5046465;28;20098;-74
2022/11/25 05:19:16;;;;;;;34.90;10.63;;;;;;;;;;5042497;28;20091;-71
2022/11/25 05:21:42;;;;;;;27.75;10.27;;;;;;;;;;5042548;28;20037;-72
2022/11/25 05:24:08;;;;;;;29.77;10.43;;;;;;;;;;5041667;28;20803;-72
2022/11/25 05:26:34;;;;;;;28.25;10.40;;;;;;;;;;5040606;28;20053;-75
2022/11/25 05:29:00;;;;;;;34.88;10.90;;;;;;;;;;5039702;28;20048;-72
2022/11/25 05:31:26;;;;;;;39.30;10.85;;;;;;;;;;5040110;28;20473;-73
2022/11/25 05:33:52;;;;;;;34.65;10.68;;;;;;;;;;5040858;28;20098;-74
2022/11/25 05:36:18;;;;;;;35.28;10.95;;;;;;;;;;5041558;28;20120;-74
2022/11/25 05:38:44;;;;;;;41.03;10.75;;;;;;;;;;5041005;28;20095;-73
2022/11/25 05:41:10;;;;;;;35.10;10.75;;;;;;;;;;5040655;28;20128;-73
2022/11/25 05:43:36;;;;;;;33.28;10.40;;;;;;;;;;5041978;28;20049;-74
2022/11/25 05:46:06;;;;;;;26.30;10.50;;;;;;;;;;5041098;28;20099;-74
2022/11/25 05:48:33;;;;;;;34.08;10.02;;;;;;;;;;5040596;28;20514;-73
2022/11/25 05:51:03;;;;;;;31.48;10.23;;;;;;;;;;5022603;28;20585;-72
2022/11/25 05:53:29;;;;;;;29.85;9.52;;;;;;;;;;5039619;28;21732;-72
2022/11/25 05:55:56;;;;;;;29.90;9.57;;;;;;;;;;5038311;28;20052;-72
2022/11/25 05:58:23;;;;;;;30.15;9.02;;;;;;;;;;5039714;28;20447;-73
2022/11/25 06:00:49;;;;;;;28.33;9.45;;;;;;;;;;5041989;28;20051;-72
2022/11/25 06:03:15;;;;;;;30.63;9.02;;;;;;;;;;5044915;28;20041;-73
2022/11/25 06:05:41;;;;;;;30.95;8.55;;;;;;;;;;5041601;28;20520;-73
2022/11/25 06:08:07;;;;;;;28.08;8.85;;;;;;;;;;5042304;28;20135;-72
2022/11/25 06:10:33;;;;;;;27.75;9.07;;;;;;;;;;5040995;28;20041;-72
2022/11/25 06:12:59;;;;;;;26.00;8.23;;;;;;;;;;5039797;28;20052;-74
2022/11/25 06:15:25;;;;;;;32.35;8.60;;;;;;;;;;5039858;28;20044;-74
2022/11/25 06:17:51;;;;;;;26.55;7.85;;;;;;;;;;5038933;28;20049;-72
2022/11/25 06:20:17;;;;;;;30.10;8.40;;;;;;;;;;5037077;28;20388;-71
2022/11/25 06:22:43;;;;;;;24.85;8.57;;;;;;;;;;5039285;28;20048;-73
2022/11/25 06:25:09;;;;;;;30.73;7.90;;;;;;;;;;5016424;28;20403;-74
2022/11/25 06:27:35;;;;;;;30.58;8.05;;;;;;;;;;5035207;28;20079;-72
2022/11/25 06:30:01;;;;;;;24.65;7.75;;;;;;;;;;5034501;28;20087;-72
2022/11/25 06:32:27;;;;;;;26.35;7.38;;;;;;;;;;5038626;28;20052;-73
2022/11/25 06:34:53;;;;;;;24.48;6.93;;;;;;;;;;5039091;28;20044;-72
2022/11/25 06:37:19;;;;;;;26.70;6.95;;;;;;;;;;5039358;28;20214;-73
2022/11/25 06:39:45;;;;;;;32.95;7.88;;;;;;;;;;5039273;28;20041;-71
2022/11/25 06:42:11;;;;;;;25.02;6.70;;;;;;;;;;5036023;28;20049;-74
2022/11/25 06:44:37;;;;;;;29.35;7.43;;;;;;;;;;5037688;28;21743;-71
2022/11/25 06:47:03;;;;;;;28.02;6.88;;;;;;;;;;5017306;28;20078;-72
2022/11/25 06:49:29;;;;;;;25.77;6.80;;;;;;;;;;5035536;28;20044;-72
2022/11/25 06:51:55;;;;;;;22.65;6.70;;;;;;;;;;5038107;28;20172;-75
2022/11/25 06:54:21;;;;;;;23.27;6.53;;;;;;;;;;5038486;28;20083;-74
2022/11/25 06:56:50;;;;;;;21.08;6.03;;;;;;;;;;5037156;28;20045;-71
2022/11/25 06:59:17;;;;;;;19.40;5.90;;;;;;;;;;5038758;28;20088;-72
2022/11/25 07:01:43;;;;;;;18.92;5.65;;;;;;;;;;5039224;28;20083;-74
2022/11/25 07:04:09;;;;;;;26.90;6.25;;;;;;;;;;5038137;28;20041;-73
2022/11/25 07:06:35;;;;;;;21.17;5.65;;;;;;;;;;5036849;28;20479;-72
2022/11/25 07:09:01;;;;;;;18.20;5.45;;;;;;;;;;5040526;28;20048;-74
2022/11/25 07:11:31;;;;;;;16.73;5.00;;;;;;;;;;5038360;28;20056;-73
2022/11/25 07:13:59;;;;;;;21.02;5.60;;;;;;;;;;5040792;28;20492;-75
2022/11/25 07:16:25;;;;;;;18.10;4.97;;;;;;;;;;5038571;28;20041;-72
2022/11/25 07:18:51;;;;;;;16.13;4.80;;;;;;;;;;5037868;28;20048;-73
2022/11/25 07:21:18;;;;;;;15.70;4.93;;;;;;;;;;5039177;28;21544;-73
2022/11/25 07:23:45;;;;;;;19.92;5.22;;;;;;;;;;5038240;28;20072;-72
2022/11/25 07:26:15;;;;;;;17.63;5.25;;;;;;;;;;5045799;28;20037;-75
2022/11/25 07:28:41;;;;;;;17.92;5.00;;;;;;;;;;5041059;28;20044;-75
2022/11/25 07:31:20;;;;;;;20.42;4.57;;;;;;;;;;5042176;28;20045;-73
2022/11/25 07:33:46;;;;;;;21.27;4.75;;;;;;;;;;5027855;28;20412;-75
2022/11/25 07:36:13;;;;;;;16.73;5.13;;;;;;;;;;5040350;28;20049;-73
2022/11/25 07:38:40;;;;;;;17.65;5.25;;;;;;;;;;5040210;28;20045;-73
2022/11/25 07:41:06;;;;;;;19.17;4.97;;;;;;;;;;5032552;28;20845;-73
2022/11/25 07:43:33;;;;;;;17.85;4.90;;;;;;;;;;5033742;28;21716;-73
2022/11/25 07:46:12;;;;;;;22.38;5.60;;;;;;;;;;5038083;28;22341;-74
2022/11/25 07:48:38;;;;;;;17.83;5.00;;;;;;;;;;5040452;28;20060;-76
2022/11/25 07:51:04;;;;;;;20.25;5.57;;;;;;;;;;5039184;28;20430;-74
2022/11/25 07:53:30;;;;;;;20.38;5.07;;;;;;;;;;5038931;28;20045;-73
2022/11/25 07:55:59;;;;;;;19.83;5.45;;;;;;;;;;5042427;28;20389;-73
2022/11/25 07:58:25;;;;;;;21.55;5.60;;;;;;;;;;5040387;28;20265;-73
2022/11/25 08:00:51;;;;;;;19.00;5.43;;;;;;;;;;5039868;28;20080;-74
2022/11/25 08:03:17;;;;;;;14.35;5.70;;;;;;;;;;5026156;28;20041;-73
2022/11/25 08:05:44;;;;;;;20.80;6.28;;;;;;;;;;5041100;28;20045;-74
2022/11/25 08:08:09;;;;;;;20.83;5.85;;;;;;;;;;5043338;28;20048;-72
2022/11/25 08:10:39;;;;;;;22.27;5.78;;;;;;;;;;5021771;28;20550;-74
2022/11/25 08:13:05;;;;;;;17.25;5.72;;;;;;;;;;5041012;28;20059;-73
2022/11/25 08:15:32;;;;;;;19.40;6.15;;;;;;;;;;5023739;28;20049;-72
2022/11/25 08:17:58;;;;;;;21.95;5.95;;;;;;;;;;5025104;28;20092;-72
2022/11/25 08:20:24;;;;;;;20.38;6.10;;;;;;;;;;5042820;28;20073;-72
2022/11/25 08:22:50;;;;;;;18.25;6.45;;;;;;;;;;5042882;28;20052;-73
2022/11/25 08:25:16;;;;;;;21.88;6.10;;;;;;;;;;5046411;28;20049;-72
2022/11/25 08:27:42;;;;;;;16.27;6.18;;;;;;;;;;5046342;28;20065;-74
2022/11/25 08:30:08;;;;;;;19.85;6.88;;;;;;;;;;5029391;28;20069;-72
2022/11/25 08:32:38;;;;;;;17.35;6.15;;;;;;;;;;5042201;28;20148;-73
2022/11/25 08:35:04;;;;;;;17.55;6.22;;;;;;;;;;5043021;28;20542;-73
2022/11/25 08:37:30;;;;;;;14.25;6.15;;;;;;;;;;5044011;28;20064;-73
2022/11/25 08:39:56;;;;;;;22.02;6.68;;;;;;;;;;5044334;28;20049;-73
2022/11/25 08:42:23;;;;;;;20.75;6.78;;;;;;;;;;5043239;28;20048;-73
2022/11/25 08:44:52;;;;;;;23.55;7.43;;;;;;;;;;5047104;28;20832;-73
2022/11/25 08:47:18;;;;;;;28.13;7.72;;;;;;;;;;5046478;28;20056;-73
2022/11/25 08:49:44;;;;;;;22.08;7.65;;;;;;;;;;5042319;28;20045;-72
2022/11/25 08:52:11;;;;;;;16.63;6.75;;;;;;;;;;5042078;28;20492;-73
2022/11/25 08:54:37;;;;;;;22.15;7.45;;;;;;;;;;5043498;28;20059;-73
2022/11/25 08:57:03;;;;;;;23.13;7.65;;;;;;;;;;5047009;28;20135;-72
2022/11/25 08:59:29;;;;;;;17.88;7.03;;;;;;;;;;5046511;28;20044;-73
2022/11/25 09:01:56;;;;;;;21.10;6.93;;;;;;;;;;5046604;28;20134;-73
2022/11/25 09:04:22;;;;;;;12.50;6.40;;;;;;;;;;5040079;28;20073;-73
2022/11/25 09:06:48;;;;;;;18.67;7.38;;;;;;;;;;5047990;28;20047;-73
2022/11/25 09:09:14;;;;;;;17.30;7.18;;;;;;;;;;5045079;28;20041;-70
2022/11/25 09:11:41;;;;;;;15.10;6.82;;;;;;;;;;5046954;28;20446;-73
2022/11/25 09:14:07;;;;;;;19.15;7.07;;;;;;;;;;5045873;28;20427;-72
2022/11/25 09:16:33;;;;;;;19.08;7.05;;;;;;;;;;5044887;28;20047;-73
2022/11/25 09:18:58;;;;;;;19.52;7.65;;;;;;;;;;5046230;28;20049;-71
2022/11/25 09:21:25;;;;;;;20.27;7.85;;;;;;;;;;5041146;28;20056;-71
2022/11/25 09:23:51;;;;;;;18.63;7.22;;;;;;;;;;5044967;28;20559;-72
2022/11/25 09:26:28;;;;;;;20.17;7.80;;;;;;;;;;5045361;28;20492;-73
2022/11/25 09:28:54;;;;;;;16.67;7.13;;;;;;;;;;5047757;28;20040;-72
2022/11/25 09:31:21;;;;;;;22.75;7.65;;;;;;;;;;5045423;28;20551;-73
2022/11/25 09:33:47;;;;;;;14.70;7.35;;;;;;;;;;5028210;28;20048;-72
2022/11/25 09:36:14;;;;;;;12.65;6.57;;;;;;;;;;5045619;28;20099;-69
2022/11/25 09:38:42;;;;;;;16.52;7.15;;;;;;;;;;5048729;28;20124;-72
2022/11/25 09:47:17;;;;;;;14.02;6.15;;;;;;;;;;5044311;28;20049;-72
2022/11/25 09:49:43;;;;;;;16.52;6.53;;;;;;;;;;5045793;28;20048;-71
2022/11/25 09:52:26;;;;;;;14.18;5.53;;;;;;;;;;5042693;28;20477;-71
2022/11/25 09:54:52;;;;;;;12.15;5.50;;;;;;;;;;5043992;28;20045;-73
2022/11/25 09:57:41;;;;;;;16.23;6.00;;;;;;;;;;5028870;28;20053;-71
2022/11/25 10:00:11;;;;;;;13.27;5.45;;;;;;;;;;5045480;28;20052;-72
2022/11/25 10:02:40;;;;;;;10.68;5.72;;;;;;;;;;5045441;28;20033;-72
2022/11/25 10:05:11;;;;;;;12.85;5.40;;;;;;;;;;5046456;28;20156;-72
2022/11/25 10:07:39;;;;;;;14.95;5.07;;;;;;;;;;5043686;28;20384;-72
2022/11/25 10:10:07;;;;;;;14.20;5.10;;;;;;;;;;5046803;28;20122;-72
2022/11/25 10:12:42;;;;;;;10.43;4.88;;;;;;;;;;5040398;28;20044;-72
2022/11/25 10:15:18;;;;;;;13.68;4.80;;;;;;;;;;5043188;28;20065;-72
2022/11/25 10:17:48;;;;;;;11.07;4.50;;;;;;;;;;5040344;28;20061;-71
2022/11/25 10:20:17;;;;;;;11.02;4.45;;;;;;;;;;5043977;28;20055;-72
2022/11/25 10:22:45;;;;;;;15.82;4.45;;;;;;;;;;5036406;28;20075;-70
2022/11/25 10:25:14;;;;;;;15.10;4.55;;;;;;;;;;5042741;28;20041;-71
2022/11/25 10:27:49;;;;;;;11.32;4.40;;;;;;;;;;5040810;28;20052;-71
2022/11/25 10:30:15;;;;;;;9.70;4.70;;;;;;;;;;5039329;28;20098;-71
2022/11/25 10:32:45;;;;;;;13.30;5.07;;;;;;;;;;5039098;28;20755;-71
2022/11/25 10:35:15;;;;;;;10.95;4.40;;;;;;;;;;5042885;28;20142;-71
2022/11/25 10:37:44;;;;;;;11.85;3.85;;;;;;;;;;5043967;28;20049;-71
2022/11/25 10:40:15;;;;;;;10.77;4.13;;;;;;;;;;5043552;28;20053;-71
2022/11/25 10:42:42;;;;;;;12.75;3.72;;;;;;;;;;5044735;28;20036;-72
2022/11/25 10:45:08;;;;;;;12.23;4.07;;;;;;;;;;5040878;28;20377;-71
2022/11/25 10:47:59;;;;;;;9.82;3.85;;;;;;;;;;5044159;28;20064;-72
2022/11/25 10:50:47;;;;;;;11.77;4.18;;;;;;;;;;5044347;28;20051;-72
2022/11/25 10:53:17;;;;;;;12.25;4.10;;;;;;;;;;5042059;28;20190;-70
2022/11/25 10:55:56;;;;;;;12.15;3.38;;;;;;;;;;5043254;28;20094;-72
2022/11/25 10:58:25;;;;;;;12.18;3.42;;;;;;;;;;5039493;28;20052;-70
2022/11/25 11:01:01;;;;;;;11.23;3.67;;;;;;;;;;5039566;28;20037;-70
2022/11/25 11:03:27;;;;;;;11.10;3.70;;;;;;;;;;5028285;28;20064;-72
2022/11/25 11:05:53;;;;;;;9.55;3.50;;;;;;;;;;5044754;28;20483;-72
2022/11/25 11:08:24;;;;;;;11.60;3.67;;;;;;;;;;5043994;28;20085;-72
2022/11/25 11:11:08;;;;;;;12.23;3.20;;;;;;;;;;5041244;28;20484;-71
2022/11/25 11:13:34;;;;;;;12.80;2.92;;;;;;;;;;5046096;28;20466;-72
2022/11/25 11:16:00;;;;;;;11.73;3.05;;;;;;;;;;5043191;28;20053;-71
2022/11/25 11:18:26;;;;;;;13.02;3.00;;;;;;;;;;5041514;28;20947;-71
2022/11/25 11:20:54;;;;;;;10.57;3.15;;;;;;;;;;5039801;28;20068;-71
2022/11/25 11:23:20;;;;;;;12.63;3.70;;;;;;;;;;5044505;28;20128;-70
2022/11/25 11:26:00;;;;;;;12.65;3.15;;;;;;;;;;5044525;28;20407;-71
2022/11/25 11:28:28;;;;;;;8.85;2.67;;;;;;;;;;5041989;28;20048;-70
2022/11/25 11:31:02;;;;;;;10.55;3.20;;;;;;;;;;5042874;28;20126;-73
2022/11/25 11:33:36;;;;;;;13.00;3.28;;;;;;;;;;5034664;28;20055;-73
2022/11/25 11:36:14;;;;;;;12.52;3.28;;;;;;;;;;5039799;28;20095;-72
2022/11/25 11:38:46;;;;;;;9.63;2.67;;;;;;;;;;5046326;28;20116;-70
2022/11/25 11:41:16;;;;;;;10.38;2.83;;;;;;;;;;5043824;28;20499;-72
2022/11/25 11:43:42;;;;;;;11.93;2.90;;;;;;;;;;5050346;28;20041;-72
2022/11/25 11:46:26;;;;;;;9.63;2.95;;;;;;;;;;5047819;28;20033;-72
2022/11/25 11:49:04;;;;;;;14.70;2.80;;;;;;;;;;5046577;28;20582;-72
2022/11/25 11:51:44;;;;;;;10.57;3.08;;;;;;;;;;5038490;28;20068;-70
2022/11/25 11:54:36;;;;;;;10.75;2.90;;;;;;;;;;5046017;28;20041;-71
2022/11/25 11:57:07;;;;;;;14.80;3.65;;;;;;;;;;5024143;28;20083;-72
2022/11/25 11:59:47;;;;;;;12.27;3.40;;;;;;;;;;5039265;28;20122;-72
2022/11/25 12:02:43;;;;;;;12.70;2.95;;;;;;;;;;5045865;28;20098;-72
2022/11/25 12:05:21;;;;;;;13.70;3.20;;;;;;;;;;5030542;28;20033;-71
2022/11/25 12:07:46;;;;;;;11.95;3.53;;;;;;;;;;5045301;28;20413;-71
2022/11/25 12:10:22;;;;;;;16.77;4.25;;;;;;;;;;5043138;28;20044;-70
2022/11/25 12:13:12;;;;;;;11.15;3.67;;;;;;;;;;5043727;28;20048;-71
2022/11/25 12:15:38;;;;;;;10.48;4.05;;;;;;;;;;5036704;28;20048;-70
2022/11/25 12:18:24;;;;;;;12.38;3.42;;;;;;;;;;5045020;28;20041;-72
2022/11/25 12:20:53;;;;;;;17.23;3.58;;;;;;;;;;5034161;28;20045;-72
2022/11/25 12:23:42;;;;;;;14.43;3.33;;;;;;;;;;5032249;28;20168;-72
2022/11/25 12:26:14;;;;;;;14.18;4.07;;;;;;;;;;5040239;28;20067;-72
2022/11/25 12:28:47;;;;;;;14.85;3.80;;;;;;;;;;5042846;28;20088;-70
2022/11/25 12:31:18;;;;;;;12.88;3.13;;;;;;;;;;5030989;28;20605;-72
2022/11/25 12:33:47;;;;;;;11.63;3.80;;;;;;;;;;5047900;28;20037;-72
2022/11/25 12:36:19;;;;;;;10.95;3.50;;;;;;;;;;5045251;28;20222;-72
2022/11/25 12:38:47;;;;;;;16.10;3.78;;;;;;;;;;5048772;28;20041;-73
2022/11/25 12:41:26;;;;;;;14.93;3.95;;;;;;;;;;5044642;28;20464;-72
2022/11/25 12:43:57;;;;;;;13.23;3.55;;;;;;;;;;5044322;28;20045;-72
2022/11/25 12:46:35;;;;;;;16.13;3.90;;;;;;;;;;5046681;28;20051;-71
2022/11/25 12:49:02;;;;;;;13.02;3.58;;;;;;;;;;5047101;28;20496;-72
2022/11/25 12:51:44;;;;;;;12.68;3.33;;;;;;;;;;5046800;28;20045;-72
2022/11/25 12:54:29;;;;;;;25.10;4.00;;;;;;;;;;5048021;28;20499;-72
2022/11/25 12:56:55;;;;;;;14.18;3.47;;;;;;;;;;5047657;28;20045;-71
2022/11/25 12:59:45;;;;;;;10.50;3.03;;;;;;;;;;5044458;28;20612;-72
2022/11/25 13:02:18;;;;;;;9.75;3.00;;;;;;;;;;5039011;28;20044;-72
2022/11/25 13:05:19;;;;;;;17.08;3.85;;;;;;;;;;5041739;28;20051;-72
2022/11/25 13:08:04;;;;;;;10.30;2.97;;;;;;;;;;4969900;28;20580;-72
2022/11/25 13:10:42;;;;;;;15.88;3.17;;;;;;;;;;5020722;28;20045;-70
2022/11/25 13:13:21;;;;;;;14.10;3.15;;;;;;;;;;5045608;28;20104;-69
2022/11/25 13:15:48;;;;;;;18.33;3.63;;;;;;;;;;5047420;28;20044;-72
2022/11/25 13:18:16;;;;;;;13.43;3.15;;;;;;;;;;5045664;28;20083;-70
2022/11/25 13:20:47;;;;;;;16.77;3.45;;;;;;;;;;5046445;28;20053;-71
2022/11/25 13:23:16;;;;;;;13.90;3.20;;;;;;;;;;5045929;28;20045;-73
2022/11/25 13:25:43;;;;;;;13.40;3.40;;;;;;;;;;5039309;28;20075;-72
2022/11/25 13:28:27;;;;;;;11.68;3.10;;;;;;;;;;5046355;28;20049;-73
2022/11/25 13:30:53;;;;;;;11.77;3.50;;;;;;;;;;5041255;28;20056;-72
2022/11/25 13:33:19;;;;;;;8.85;2.92;;;;;;;;;;5027572;28;20155;-72
2022/11/25 13:35:52;;;;;;;14.82;3.50;;;;;;;;;;5048932;28;20488;-72
2022/11/25 13:38:38;;;;;;;15.05;3.47;;;;;;;;;;5044931;28;20136;-72
2022/11/25 13:41:10;;;;;;;15.02;3.95;;;;;;;;;;5024712;28;20090;-72
2022/11/25 13:43:51;;;;;;;17.65;3.90;;;;;;;;;;5046868;28;20464;-72
2022/11/25 13:46:28;;;;;;;13.20;3.58;;;;;;;;;;5049317;28;20075;-72
2022/11/25 13:48:54;;;;;;;18.15;3.88;;;;;;;;;;5041926;28;20045;-71
2022/11/25 13:51:21;;;;;;;11.55;3.03;;;;;;;;;;5045978;28;20135;-71
2022/11/25 13:53:55;;;;;;;13.88;3.55;;;;;;;;;;5047004;28;20128;-71
2022/11/25 13:56:29;;;;;;;15.57;3.88;;;;;;;;;;5045867;28;20048;-71
2022/11/25 13:59:10;;;;;;;15.75;3.63;;;;;;;;;;5044269;28;20063;-72
2022/11/25 14:01:37;;;;;;;18.20;3.55;;;;;;;;;;5047372;28;20110;-72
2022/11/25 14:04:11;;;;;;;13.85;3.22;;;;;;;;;;5046367;28;20068;-72
2022/11/25 14:07:00;;;;;;;13.95;3.13;;;;;;;;;;5048109;28;20102;-72
2022/11/25 14:09:51;;;;;;;15.90;3.53;;;;;;;;;;5036910;28;20060;-72
2022/11/25 14:12:22;;;;;;;14.27;3.42;;;;;;;;;;5046692;28;20178;-72
2022/11/25 14:14:55;;;;;;;13.32;3.70;;;;;;;;;;5045717;28;20119;-72
2022/11/25 14:17:28;;;;;;;15.60;3.75;;;;;;;;;;5045181;28;20090;-73
2022/11/25 14:20:04;;;;;;;17.23;3.60;;;;;;;;;;5046287;28;20048;-70
2022/11/25 14:22:35;;;;;;;12.40;3.13;;;;;;;;;;5046625;28;20045;-70
2022/11/25 14:25:13;;;;;;;16.00;3.67;;;;;;;;;;5047681;28;20127;-70
2022/11/25 14:27:44;;;;;;;15.68;3.22;;;;;;;;;;5041385;28;20195;-70
2022/11/25 14:30:10;;;;;;;18.75;3.67;;;;;;;;;;5044396;28;20045;-70
2022/11/25 14:32:44;;;;;;;16.48;4.07;;;;;;;;;;5041412;28;20045;-72
2022/11/25 14:35:14;;;;;;;14.23;5.03;;;;;;;;;;5045370;28;20044;-70
2022/11/25 14:37:51;;;;;;;17.38;3.53;;;;;;;;;;5040086;28;20151;-70
2022/11/25 14:40:35;;;;;;;14.88;3.28;;;;;;;;;;5041093;28;20811;-70
2022/11/25 14:43:04;;;;;;;16.05;3.08;;;;;;;;;;5036897;28;20049;-70
2022/11/25 14:45:32;;;;;;;19.58;3.80;;;;;;;;;;5049325;28;20044;-71
2022/11/25 14:48:11;;;;;;;16.65;3.63;;;;;;;;;;5030891;28;20070;-69
2022/11/25 14:50:38;;;;;;;17.60;3.22;;;;;;;;;;5045286;28;20076;-70
2022/11/25 14:53:08;;;;;;;16.85;3.20;;;;;;;;;;5043928;28;20049;-70